Airfield :







YOU CAN JOIN US ON...

 
LOGIN :

Register | Disclaimer

   EN    FR    IT 

 









Legend :    VFR   Marginal VFR   IFR   Intensive IFR   Very Intensive IFR
Visi :
Ceiling :
>= 8 km
>= 3000ft
5 to 8 km
1000 to 3000 ft
1500m to 5 km
500 to 1000 ft
800 to 1500m
200 to 500 ft
< 800m
< 200 ft
Symbols :   Thunderstorms  Fog  Heavy snow  Heavy precipitations  Wind > 20 kt






- Airport Elevation : 36 ft
- IATA code : PTP


TFFR - Le Raizet

CURRENT METAR :
  • 241800Z AUTO 17011KT 120V190 9999 BKN028/// BKN034/// OVC040/// ///TCU 29/23 Q1015

EXPIRED METARs :
  • 241730Z AUTO 15012KT 120V190 9999 SCT026/// BKN031/// BKN039/// ///CB 29/22 Q1015
  • 241700Z AUTO 16010KT 120V200 9999 BKN029 BKN036 BKN056 30/23 Q1015
  • 241630Z AUTO 16011KT 9999 BKN030 BKN037 BKN044 29/22 Q1015
  • 241600Z AUTO 15005KT 070V210 9999 FEW029 SCT038 BKN046 29/21 Q1016
  • 241530Z AUTO 08005KT 040V130 9999 SCT039 BKN048 OVC064 28/22 Q1016

Expired Forecast.



MET'MAP, your aeronautical weather chart ! - Copyright ORBIFLY December 2007 - Disclaimer

ORBIFLY MET'MAP TEAM :

Programming & Development : Alexandra Zaïnal
Concept & original design : Baudouin d'Aumeries
Assistance for programming : Marc-Olivier Méhu
Technical & hardware support : Manuel Goepfert

Contact : metmap@orbifly.com




SOURCES & CREDITS :

   NOAA